BIVM

Vestmannaeyjar Airport

Vestmannaeyjar, Iceland
METAR BIVM 181000Z 32016G27KT 9999 SCT025 10/07 Q0988
Observed Flight Rules
Jun-18 @ 10:00 UTC (an hour ago) Visual Flight Rules
Wind Visibility Clouds
320° at 16 knots
 Gusting to 27 knots
10,000+ meters
  • Scattered at 2,500' AGL
Temperatures Readings
Current 10°C / 50°F
Dewpoint 7°C / 45°F
Humidity 82%
Altimeter 29.17" Hg
Pressure 988 hPa
Elevation 124
METAR BIVM 181000Z 32016G27KT 9999 SCT025 10/07 Q0988
Observed Flight Rules
Jun-18 @ 10:00 UTC
(an hour ago)
VFR
Wind Visibility
320° at 16 knots
 Gusting to 27 knots
10,000+ meters
Clouds
  • Scattered at 2,500' AGL
Temperature Dewpoint
10°C / 50°F 7°C / 45°F
Humidity Altimeter Pressure
82% 29.17" Hg 988 hPa